createdAt,value
2018-02-23T00:00:53.177Z,1020.7
2018-02-23T00:05:56.066Z,1020.7
2018-02-23T00:11:00.987Z,1020.8
2018-02-23T00:15:55.699Z,1020.7
2018-02-23T00:20:55.962Z,1020.7
2018-02-23T00:25:55.655Z,1020.6
2018-02-23T00:30:55.751Z,1020.6
2018-02-23T00:35:55.711Z,1020.7
2018-02-23T00:40:55.677Z,1020.6
2018-02-23T00:45:55.719Z,1020.6
2018-02-23T00:50:55.705Z,1020.6
2018-02-23T00:55:55.500Z,1020.5
2018-02-23T01:00:58.659Z,1020.6
2018-02-23T01:05:59.269Z,1020.4
2018-02-23T01:10:55.911Z,1020.5
2018-02-23T01:15:55.634Z,1020.4
2018-02-23T01:20:55.785Z,1020.4
2018-02-23T01:25:55.881Z,1020.3
2018-02-23T01:30:55.751Z,1020.2
2018-02-23T01:35:55.719Z,1020.2
2018-02-23T01:40:55.736Z,1020.1
2018-02-23T01:45:55.916Z,1020.1
2018-02-23T01:50:55.787Z,1020.2
2018-02-23T01:55:55.780Z,1020.1
2018-02-23T02:00:55.703Z,1020.1
2018-02-23T02:05:55.804Z,1020.1
2018-02-23T02:10:55.708Z,1020
2018-02-23T02:15:55.887Z,1019.9
2018-02-23T02:20:55.779Z,1019.9
2018-02-23T02:25:55.880Z,1019.8
2018-02-23T02:30:55.849Z,1019.8
2018-02-23T02:35:55.970Z,1019.8
2018-02-23T02:40:55.902Z,1019.9
2018-02-23T02:45:55.904Z,1019.9
2018-02-23T02:50:55.926Z,1019.8
2018-02-23T02:55:55.900Z,1019.9
2018-02-23T03:00:56.128Z,1019.9
2018-02-23T03:05:56.047Z,1019.9
2018-02-23T03:10:56.084Z,1019.9
2018-02-23T03:15:55.939Z,1020
2018-02-23T03:20:56.138Z,1019.9
2018-02-23T03:25:56.106Z,1019.8
2018-02-23T03:30:56.101Z,1019.8
2018-02-23T03:35:55.947Z,1019.8
2018-02-23T03:40:56.170Z,1019.8
2018-02-23T03:45:56.110Z,1019.8
2018-02-23T03:50:56.082Z,1020.1
2018-02-23T03:55:56.206Z,1019.9
2018-02-23T04:00:56.112Z,1019.9
2018-02-23T04:05:56.254Z,1019.9
2018-02-23T04:10:56.161Z,1019.8
2018-02-23T04:15:56.303Z,1020
2018-02-23T04:20:56.041Z,1020.1
2018-02-23T04:25:56.018Z,1020.1
2018-02-23T04:30:56.267Z,1020.1
2018-02-23T04:35:56.246Z,1020.1
2018-02-23T04:40:56.133Z,1020.1
2018-02-23T04:45:56.054Z,1020.1
2018-02-23T04:51:01.189Z,1020
2018-02-23T04:56:06.461Z,1020
2018-02-23T05:01:11.371Z,1020
2018-02-23T05:06:06.374Z,1020
2018-02-23T05:11:06.356Z,1020
2018-02-23T05:16:06.420Z,1020.1
2018-02-23T05:21:06.364Z,1020
2018-02-23T05:26:06.518Z,1020.1
2018-02-23T05:31:06.561Z,1019.9
2018-02-23T05:36:06.352Z,1020.1
2018-02-23T05:41:06.439Z,1020.1
2018-02-23T05:46:06.370Z,1020
2018-02-23T05:51:06.368Z,1020
2018-02-23T05:56:06.419Z,1020.1
2018-02-23T06:01:06.357Z,1020.1
2018-02-23T06:06:06.560Z,1020.2
2018-02-23T06:11:06.687Z,1020.2
2018-02-23T06:16:06.403Z,1020.3
2018-02-23T06:21:06.568Z,1020.2
2018-02-23T06:26:06.391Z,1020.3
2018-02-23T06:31:06.605Z,1020.4
2018-02-23T06:36:07.680Z,1020.4
2018-02-23T06:41:06.457Z,1020.4
2018-02-23T06:46:06.390Z,1020.4
2018-02-23T06:51:09.395Z,1020.3
2018-02-23T06:56:06.434Z,1020.4
2018-02-23T07:01:06.412Z,1020.5
2018-02-23T07:06:06.406Z,1020.5
2018-02-23T07:11:06.903Z,1020.4
2018-02-23T07:16:06.571Z,1020.3
2018-02-23T07:21:06.548Z,1020.4
2018-02-23T07:26:06.606Z,1020.4
2018-02-23T07:31:06.664Z,1020.4
2018-02-23T07:36:06.432Z,1020.4
2018-02-23T07:41:06.597Z,1020.3
2018-02-23T07:46:06.661Z,1020.4
2018-02-23T07:51:06.556Z,1020.5
2018-02-23T07:56:06.585Z,1020.5
2018-02-23T08:01:06.636Z,1020.6
2018-02-23T08:06:06.669Z,1020.7
2018-02-23T08:11:06.474Z,1020.5
2018-02-23T08:16:06.650Z,1020.7
2018-02-23T08:21:06.445Z,1020.7
2018-02-23T08:26:06.487Z,1020.7
2018-02-23T08:31:06.615Z,1020.6
2018-02-23T08:36:06.667Z,1020.6
2018-02-23T08:41:06.560Z,1020.6
2018-02-23T08:46:06.734Z,1020.6
2018-02-23T08:51:06.680Z,1020.8
2018-02-23T08:56:06.681Z,1020.8
2018-02-23T09:01:06.611Z,1020.7
2018-02-23T09:06:06.691Z,1020.7
2018-02-23T09:11:06.448Z,1020.8
2018-02-23T09:16:06.634Z,1020.6
2018-02-23T09:21:06.705Z,1020.6
2018-02-23T09:26:06.712Z,1020.7
2018-02-23T09:31:06.601Z,1020.6
2018-02-23T09:36:06.576Z,1020.6
2018-02-23T09:41:06.518Z,1020.6
2018-02-23T09:46:12.000Z,1020.6
2018-02-23T09:51:17.201Z,1020.6
2018-02-23T09:56:11.850Z,1020.6
2018-02-23T10:01:12.116Z,1020.6
2018-02-23T10:06:13.055Z,1020.7
2018-02-23T10:11:12.068Z,1020.6
2018-02-23T10:16:12.024Z,1020.6
2018-02-23T10:21:12.219Z,1020.6
2018-02-23T10:26:11.881Z,1020.6
2018-02-23T10:31:12.039Z,1020.4
2018-02-23T10:36:12.177Z,1020.6
2018-02-23T10:41:12.040Z,1020.5
2018-02-23T10:46:12.059Z,1020.4
2018-02-23T10:51:12.105Z,1020.3
2018-02-23T10:56:11.920Z,1020.1
2018-02-23T11:01:12.184Z,1020.2
2018-02-23T11:06:12.426Z,1020.4
2018-02-23T11:11:12.142Z,1020.3
2018-02-23T11:16:12.159Z,1020.4
2018-02-23T11:21:12.123Z,1020.2
2018-02-23T11:26:12.090Z,1020.2
2018-02-23T11:31:12.171Z,1020.1
2018-02-23T11:36:12.068Z,1020.1
2018-02-23T11:41:12.115Z,1020.2
2018-02-23T11:46:12.136Z,1020.2
2018-02-23T11:51:12.069Z,1020
2018-02-23T11:56:12.117Z,1020.1
2018-02-23T12:01:12.060Z,1020
2018-02-23T12:06:11.896Z,1020.3
2018-02-23T12:11:11.951Z,1020.2
2018-02-23T12:16:12.152Z,1020.1
2018-02-23T12:21:12.242Z,1020.1
2018-02-23T12:26:12.092Z,1020.2
2018-02-23T12:31:12.076Z,1020.2
2018-02-23T12:36:12.172Z,1020.3
2018-02-23T12:41:12.172Z,1020.1
2018-02-23T12:46:11.967Z,1020.1
2018-02-23T12:51:12.183Z,1020.1
2018-02-23T12:56:11.969Z,1020.1
2018-02-23T13:01:11.987Z,1020.1
2018-02-23T13:06:12.186Z,1020
2018-02-23T13:11:12.215Z,1020
2018-02-23T13:16:11.983Z,1019.8
2018-02-23T13:21:12.107Z,1019.9
2018-02-23T13:26:12.435Z,1020
2018-02-23T13:31:12.609Z,1020.1
2018-02-23T13:36:12.501Z,1020.2
2018-02-23T13:41:12.410Z,1020.1
2018-02-23T13:46:12.459Z,1020.2
2018-02-23T13:51:12.507Z,1020.3
2018-02-23T13:56:12.290Z,1020.3
2018-02-23T14:01:12.451Z,1020.3
2018-02-23T14:06:12.470Z,1020.2
2018-02-23T14:11:12.537Z,1020.3
2018-02-23T14:16:12.293Z,1020.3
2018-02-23T14:21:12.311Z,1020.3
2018-02-23T14:26:12.311Z,1020.4
2018-02-23T14:31:12.439Z,1020.4
2018-02-23T14:36:12.542Z,1020.3
2018-02-23T14:41:17.610Z,1020.4
2018-02-23T14:46:12.558Z,1020.3
2018-02-23T14:51:12.422Z,1020.2
2018-02-23T14:56:12.329Z,1020.3
2018-02-23T15:01:12.544Z,1020.4
2018-02-23T15:06:12.414Z,1020.4
2018-02-23T15:11:12.532Z,1020.4
2018-02-23T15:16:12.362Z,1020.5
2018-02-23T15:21:12.584Z,1020.4
2018-02-23T15:26:12.585Z,1020.6
2018-02-23T15:31:12.803Z,1020.5
2018-02-23T15:36:12.515Z,1020.5
2018-02-23T15:41:12.493Z,1020.5
2018-02-23T15:46:12.543Z,1020.5
2018-02-23T15:51:12.594Z,1020.5
2018-02-23T15:56:12.365Z,1020.6
2018-02-23T16:01:12.375Z,1020.6
2018-02-23T16:06:12.630Z,1020.6
2018-02-23T16:11:12.506Z,1020.6
2018-02-23T16:16:12.591Z,1020.6
2018-02-23T16:21:12.660Z,1020.6
2018-02-23T16:26:12.594Z,1020.6
2018-02-23T16:31:12.712Z,1020.6
2018-02-23T16:36:12.599Z,1020.6
2018-02-23T16:41:12.586Z,1020.6
2018-02-23T16:46:12.727Z,1020.7
2018-02-23T16:51:12.805Z,1020.7
2018-02-23T16:56:12.862Z,1020.8
2018-02-23T17:01:12.620Z,1020.8
2018-02-23T17:06:12.772Z,1020.9
2018-02-23T17:11:12.924Z,1021.2
2018-02-23T17:16:12.738Z,1021.2
2018-02-23T17:21:12.865Z,1021.4
2018-02-23T17:26:12.812Z,1021.3
2018-02-23T17:31:12.841Z,1021.3
2018-02-23T17:36:13.781Z,1021.4
2018-02-23T17:41:13.039Z,1021.4
2018-02-23T17:46:12.640Z,1021.4
2018-02-23T17:51:12.621Z,1021.4
2018-02-23T17:56:12.626Z,1021.5
2018-02-23T18:01:12.861Z,1021.5
2018-02-23T18:06:12.772Z,1021.5
2018-02-23T18:11:12.661Z,1021.6
2018-02-23T18:16:12.777Z,1021.5
2018-02-23T18:21:12.654Z,1021.5
2018-02-23T18:26:12.710Z,1021.5
2018-02-23T18:31:12.656Z,1021.6
2018-02-23T18:36:12.879Z,1021.5
2018-02-23T18:41:12.834Z,1021.4
2018-02-23T18:46:12.889Z,1021.5
2018-02-23T18:51:12.885Z,1021.6
2018-02-23T18:56:13.827Z,1021.6
2018-02-23T19:01:12.892Z,1021.7
2018-02-23T19:06:12.923Z,1021.7
2018-02-23T19:11:13.117Z,1021.7
2018-02-23T19:16:12.968Z,1021.8
2018-02-23T19:21:12.706Z,1021.8
2018-02-23T19:26:14.065Z,1021.9
2018-02-23T19:31:19.075Z,1021.9
2018-02-23T19:36:14.017Z,1021.9
2018-02-23T19:41:14.032Z,1021.9
2018-02-23T19:46:14.282Z,1022
2018-02-23T19:51:14.002Z,1021.9
2018-02-23T19:56:14.049Z,1022
2018-02-23T20:01:14.285Z,1022
2018-02-23T20:06:14.047Z,1022
2018-02-23T20:11:14.041Z,1022.1
2018-02-23T20:16:14.274Z,1022.1
2018-02-23T20:21:14.186Z,1022
2018-02-23T20:26:14.232Z,1022.1
2018-02-23T20:31:14.265Z,1022
2018-02-23T20:36:14.240Z,1022.1
2018-02-23T20:41:14.061Z,1022.2
2018-02-23T20:46:14.290Z,1022.4
2018-02-23T20:51:14.106Z,1022.5
2018-02-23T20:56:14.077Z,1022.4
2018-02-23T21:01:14.054Z,1022.5
2018-02-23T21:06:14.293Z,1022.4
2018-02-23T21:11:14.221Z,1022.2
2018-02-23T21:16:14.299Z,1022.2
2018-02-23T21:21:14.195Z,1022.2
2018-02-23T21:26:17.232Z,1022.3
2018-02-23T21:31:14.294Z,1022.3
2018-02-23T21:36:14.323Z,1022.3
2018-02-23T21:41:14.280Z,1022.3
2018-02-23T21:46:14.288Z,1022.5
2018-02-23T21:51:14.310Z,1022.3
2018-02-23T21:56:14.205Z,1022.5
2018-02-23T22:01:14.703Z,1022.6
2018-02-23T22:06:14.330Z,1022.6
2018-02-23T22:11:14.367Z,1022.6
2018-02-23T22:16:14.249Z,1022.6
2018-02-23T22:21:14.106Z,1022.5
2018-02-23T22:26:14.222Z,1022.6
2018-02-23T22:31:14.386Z,1022.6
2018-02-23T22:36:14.129Z,1022.7
2018-02-23T22:41:14.362Z,1022.7
2018-02-23T22:46:14.282Z,1022.6
2018-02-23T22:51:14.349Z,1022.7
2018-02-23T22:56:14.342Z,1022.7
2018-02-23T23:01:14.177Z,1022.7
2018-02-23T23:06:14.375Z,1022.8
2018-02-23T23:11:14.335Z,1022.9
2018-02-23T23:16:14.401Z,1022.9
2018-02-23T23:21:14.183Z,1022.9
2018-02-23T23:26:14.496Z,1022.9
2018-02-23T23:31:14.350Z,1022.9
2018-02-23T23:36:14.169Z,1023
2018-02-23T23:41:14.160Z,1023.1
2018-02-23T23:46:14.368Z,1023
2018-02-23T23:51:14.191Z,1023
2018-02-23T23:56:15.691Z,1023
